Time;durP1;ratioP1;P1;durP2;ratioP2;P2;SDS_P1;SDS_P2;PMS_P1;PMS_P2;Temp;Humidity;BMP_temperature;BMP_pressure;BME280_temperature;BME280_humidity;BME280_pressure;Samples;Min_cycle;Max_cycle;Signal;HPM_P1;HPM_P2
2022/04/19 00:00:10;;;;;;;0.00;0.00;;;;;;;8.33;66.73;101144.13;7362699;19;20823;-64
2022/04/19 00:02:36;;;;;;;0.00;0.00;;;;;;;8.40;66.91;101155.38;7366010;19;20003;-64
2022/04/19 00:05:02;;;;;;;0.10;0.10;;;;;;;8.34;67.07;101144.97;7365013;19;20343;-64
2022/04/19 00:07:28;;;;;;;0.00;0.00;;;;;;;8.38;66.13;101154.53;7367376;19;20504;-65
2022/04/19 00:09:53;;;;;;;0.10;0.10;;;;;;;8.37;65.02;101145.00;7366081;19;20018;-65
2022/04/19 00:12:19;;;;;;;0.03;0.03;;;;;;;8.36;65.84;101152.78;7364984;19;20017;-65
2022/04/19 00:14:45;;;;;;;0.00;0.00;;;;;;;8.35;66.72;101146.69;7366508;19;20034;-65
2022/04/19 00:17:11;;;;;;;0.10;0.10;;;;;;;8.31;66.34;101138.06;7359260;19;20010;-65
2022/04/19 00:19:36;;;;;;;0.08;0.08;;;;;;;8.30;66.54;101143.25;7367928;19;20006;-65
2022/04/19 00:22:02;;;;;;;0.10;0.10;;;;;;;8.29;65.53;101144.16;7363974;19;20006;-65
2022/04/19 00:24:28;;;;;;;0.00;0.00;;;;;;;8.27;66.79;101149.38;7374560;19;20925;-64
2022/04/19 00:26:54;;;;;;;0.00;0.00;;;;;;;8.13;65.84;101124.31;7369463;19;20017;-64
2022/04/19 00:29:20;;;;;;;0.00;0.00;;;;;;;8.22;66.52;101139.88;7374689;19;20007;-64
2022/04/19 00:31:45;;;;;;;0.00;0.00;;;;;;;8.21;66.09;101145.91;7368986;19;20454;-66
2022/04/19 00:34:11;;;;;;;0.00;0.00;;;;;;;8.18;66.81;101140.75;7371419;19;20759;-64
2022/04/19 00:36:38;;;;;;;0.00;0.00;;;;;;;8.17;67.16;101136.44;7374473;19;20007;-65
2022/04/19 00:39:04;;;;;;;0.00;0.00;;;;;;;8.15;68.21;101132.94;7371634;19;20017;-65
2022/04/19 00:41:29;;;;;;;0.03;0.03;;;;;;;8.11;67.09;101132.13;7368163;19;20006;-65
2022/04/19 00:43:55;;;;;;;0.10;0.10;;;;;;;8.11;67.82;101141.63;7371702;19;20030;-64
2022/04/19 00:46:21;;;;;;;0.00;0.00;;;;;;;8.09;68.03;101139.06;7361899;19;20006;-65
2022/04/19 00:48:46;;;;;;;0.00;0.00;;;;;;;8.07;67.50;101139.06;7368186;19;20005;-65
2022/04/19 00:51:12;;;;;;;0.10;0.10;;;;;;;8.05;66.92;101143.41;7360841;19;20079;-65
2022/04/19 00:53:38;;;;;;;0.00;0.00;;;;;;;8.02;65.82;101146.03;7372278;19;20777;-65
2022/04/19 00:56:03;;;;;;;0.00;0.00;;;;;;;7.99;65.21;101148.66;7369141;19;20010;-64
2022/04/19 00:58:29;;;;;;;0.00;0.00;;;;;;;7.93;65.25;101146.06;7361225;19;20006;-65
2022/04/19 01:00:55;;;;;;;0.00;0.00;;;;;;;7.79;65.72;101130.53;7375344;19;20003;-65
2022/04/19 01:03:21;;;;;;;0.00;0.00;;;;;;;7.75;65.89;101131.41;7371539;19;20069;-65
2022/04/19 01:05:47;;;;;;;0.10;0.10;;;;;;;7.64;65.67;101132.34;7366798;19;20014;-64
2022/04/19 01:08:14;;;;;;;0.10;0.10;;;;;;;7.71;65.89;101153.13;7363978;19;20015;-65
2022/04/19 01:10:42;;;;;;;0.10;0.10;;;;;;;7.68;66.74;101157.44;7350725;19;20474;-64
2022/04/19 01:13:19;;;;;;;;;;;;;;;7.67;65.50;101150.53;7366669;19;20942;-65
2022/04/19 01:15:49;;;;;;;0.00;0.00;;;;;;;7.62;67.04;101147.94;7359648;19;19915;-64
2022/04/19 01:18:20;;;;;;;0.10;0.10;;;;;;;7.58;66.46;101146.22;7365973;19;20009;-65
2022/04/19 01:20:48;;;;;;;0.10;0.10;;;;;;;7.56;66.52;101152.31;7358193;19;19999;-65
2022/04/19 01:23:13;;;;;;;0.10;0.10;;;;;;;7.51;66.76;101145.38;7361930;19;20014;-66
2022/04/19 01:25:38;;;;;;;0.00;0.00;;;;;;;7.49;67.56;101147.09;7365789;19;20017;-65
2022/04/19 01:28:04;;;;;;;0.00;0.00;;;;;;;7.36;67.75;101129.84;7363138;19;20098;-65
2022/04/19 01:30:31;;;;;;;0.00;0.00;;;;;;;7.48;67.46;101158.38;7366256;19;20010;-65
2022/04/19 01:32:57;;;;;;;0.00;0.00;;;;;;;7.47;67.12;101148.84;7365780;19;20014;-65
2022/04/19 01:35:23;;;;;;;0.00;0.00;;;;;;;7.46;67.64;101156.66;7363424;19;20034;-64
2022/04/19 01:37:50;;;;;;;0.00;0.00;;;;;;;7.45;67.13;101154.91;7364872;19;20010;-65
2022/04/19 01:40:16;;;;;;;0.10;0.10;;;;;;;7.43;67.60;101165.31;7366665;19;20026;-65
2022/04/19 01:42:58;;;;;;;0.10;0.10;;;;;;;7.32;67.15;101143.69;7364467;19;20015;-66
2022/04/19 01:45:25;;;;;;;0.00;0.00;;;;;;;7.37;67.68;101162.72;7366394;19;20867;-64
2022/04/19 01:47:52;;;;;;;0.10;0.10;;;;;;;7.37;67.23;101167.06;7365723;19;20466;-65
2022/04/19 01:50:18;;;;;;;0.00;0.00;;;;;;;7.35;67.90;101169.69;7356249;19;19999;-65
2022/04/19 01:52:46;;;;;;;0.00;0.00;;;;;;;7.34;67.37;101180.91;7358603;19;19999;-64
2022/04/19 01:55:13;;;;;;;0.00;0.00;;;;;;;7.29;67.35;101169.66;7363289;19;20015;-66
2022/04/19 01:57:43;;;;;;;0.00;0.00;;;;;;;7.25;67.67;101162.78;7361242;19;20789;-64
2022/04/19 02:00:10;;;;;;;0.00;0.00;;;;;;;7.18;67.11;101164.50;7356036;19;20007;-64
2022/04/19 02:02:36;;;;;;;0.00;0.00;;;;;;;7.28;67.19;101188.72;7360545;19;20003;-64
2022/04/19 02:05:02;;;;;;;0.00;0.00;;;;;;;7.21;67.35;101181.81;7357419;19;22253;-65
2022/04/19 02:07:27;;;;;;;0.05;0.05;;;;;;;7.20;67.39;101190.50;7360608;19;20019;-66
2022/04/19 02:09:53;;;;;;;0.00;0.00;;;;;;;7.21;67.81;101192.22;7354502;19;20362;-65
2022/04/19 02:12:19;;;;;;;0.00;0.00;;;;;;;7.12;67.66;101187.00;7360483;19;20099;-65
2022/04/19 02:14:45;;;;;;;0.00;0.00;;;;;;;7.17;67.74;101200.88;7345404;19;20736;-65
2022/04/19 02:17:11;;;;;;;0.00;0.00;;;;;;;7.05;67.37;101174.91;7357748;19;20022;-65
2022/04/19 02:19:36;;;;;;;0.00;0.00;;;;;;;7.12;68.06;101192.22;7356612;19;20016;-65
2022/04/19 02:22:06;;;;;;;0.00;0.00;;;;;;;7.07;67.85;101188.75;7337900;19;20015;-66
2022/04/19 02:24:32;;;;;;;0.00;0.00;;;;;;;7.00;67.53;101185.31;7357917;19;20017;-65
2022/04/19 02:26:57;;;;;;;0.10;0.10;;;;;;;7.06;67.93;101192.22;7350055;19;20018;-65
2022/04/19 02:29:25;;;;;;;0.00;0.00;;;;;;;7.04;67.64;101197.41;7353543;19;20011;-65
2022/04/19 02:31:52;;;;;;;0.00;0.00;;;;;;;7.00;68.09;101196.56;7360768;19;20611;-65
2022/04/19 02:34:18;;;;;;;0.00;0.00;;;;;;;6.96;68.46;101191.34;7359667;19;20011;-63
2022/04/19 02:36:44;;;;;;;0.00;0.00;;;;;;;6.96;68.20;101201.75;7348903;19;20020;-64
2022/04/19 02:39:09;;;;;;;0.00;0.00;;;;;;;6.88;67.71;101193.94;7358944;19;20027;-65
2022/04/19 02:41:36;;;;;;;0.00;0.00;;;;;;;6.91;67.73;101199.13;7347307;19;20022;-61
2022/04/19 02:44:03;;;;;;;0.00;0.00;;;;;;;6.88;68.18;101200.84;7359383;19;20784;-63
2022/04/19 02:46:29;;;;;;;0.00;0.00;;;;;;;6.86;67.61;101200.00;7356402;19;20405;-65
2022/04/19 02:48:57;;;;;;;0.00;0.00;;;;;;;6.82;67.85;101199.13;7343871;19;20761;-65
2022/04/19 02:51:22;;;;;;;0.00;0.00;;;;;;;6.79;68.58;101209.50;7359213;19;20537;-63
2022/04/19 02:53:48;;;;;;;0.10;0.10;;;;;;;6.75;68.37;101212.97;7349497;19;20035;-66
2022/04/19 02:56:13;;;;;;;0.10;0.10;;;;;;;6.68;68.25;101201.69;7348176;19;20014;-65
2022/04/19 02:58:39;;;;;;;0.00;0.00;;;;;;;6.74;69.03;101216.41;7341983;19;20014;-65
2022/04/19 03:01:04;;;;;;;0.10;0.10;;;;;;;6.63;68.41;101198.22;7349624;19;20382;-65
2022/04/19 03:03:29;;;;;;;0.10;0.10;;;;;;;6.71;68.82;101213.84;7354530;19;20031;-64
2022/04/19 03:05:56;;;;;;;0.00;0.00;;;;;;;6.69;68.83;101218.13;7349590;19;20013;-65
2022/04/19 03:08:22;;;;;;;0.10;0.10;;;;;;;6.64;68.74;101219.84;7357052;19;20006;-65
2022/04/19 03:10:49;;;;;;;0.03;0.03;;;;;;;6.66;68.74;101223.34;7355885;19;20029;-64
2022/04/19 03:13:16;;;;;;;0.05;0.05;;;;;;;6.65;68.55;101226.81;7345930;19;20014;-65
2022/04/19 03:15:41;;;;;;;0.00;0.00;;;;;;;6.57;68.65;101218.13;7354562;19;20009;-62
2022/04/19 03:18:07;;;;;;;0.00;0.00;;;;;;;6.61;68.43;101231.13;7354442;19;20010;-65
2022/04/19 03:20:32;;;;;;;0.10;0.10;;;;;;;6.60;68.84;101231.13;7361936;19;20655;-65
2022/04/19 03:28:25;;;;;;;0.03;0.03;;;;;;;6.55;68.79;101225.06;7349216;19;20010;-65
2022/04/19 03:30:51;;;;;;;0.00;0.00;;;;;;;6.53;69.46;101227.63;7360624;19;20379;-66
2022/04/19 03:33:16;;;;;;;0.00;0.00;;;;;;;6.52;69.56;101230.22;7357305;19;20009;-64
2022/04/19 03:35:42;;;;;;;0.00;0.00;;;;;;;6.50;68.88;101228.50;7362679;19;20090;-65
2022/04/19 03:38:08;;;;;;;0.05;0.05;;;;;;;6.48;69.70;101235.41;7356808;19;20789;-65
2022/04/19 03:40:34;;;;;;;0.00;0.00;;;;;;;6.42;69.31;101219.81;7357041;19;20006;-65
2022/04/19 03:42:59;;;;;;;0.00;0.00;;;;;;;6.47;69.45;101236.25;7360505;19;20033;-62
2022/04/19 03:45:25;;;;;;;0.00;0.00;;;;;;;6.46;69.39;101236.28;7360441;19;20025;-66
2022/04/19 03:47:51;;;;;;;0.00;0.00;;;;;;;6.44;69.26;101241.47;7359245;19;20021;-64
2022/04/19 03:50:16;;;;;;;0.00;0.00;;;;;;;6.43;69.42;101244.88;7360803;19;20022;-65
2022/04/19 03:52:44;;;;;;;0.10;0.10;;;;;;;6.41;69.50;101244.03;7362536;19;20589;-65
2022/04/19 03:55:09;;;;;;;0.08;0.08;;;;;;;6.30;69.41;101235.34;7358339;19;20015;-64
2022/04/19 03:57:35;;;;;;;0.00;0.00;;;;;;;6.38;69.15;101254.38;7363018;19;20044;-63
2022/04/19 04:00:00;;;;;;;0.10;0.10;;;;;;;6.37;69.01;101244.03;7347701;19;20018;-62
2022/04/19 04:02:26;;;;;;;0.00;0.00;;;;;;;6.33;69.44;101250.91;7356526;19;20011;-64
2022/04/19 04:04:52;;;;;;;0.00;0.00;;;;;;;6.00;69.21;101198.94;7362192;19;20014;-64
2022/04/19 04:07:17;;;;;;;0.00;0.00;;;;;;;6.29;69.60;101248.34;7359098;19;20011;-65
2022/04/19 04:09:42;;;;;;;0.00;0.00;;;;;;;6.26;69.38;101249.16;7353902;19;20505;-65
2022/04/19 04:12:10;;;;;;;0.00;0.00;;;;;;;6.24;68.95;101256.09;7358276;19;20031;-64
2022/04/19 04:14:36;;;;;;;0.10;0.10;;;;;;;6.20;69.05;101249.16;7357396;19;20014;-63
2022/04/19 04:17:02;;;;;;;0.10;0.10;;;;;;;6.17;68.93;101259.50;7361209;19;20465;-65
2022/04/19 04:19:27;;;;;;;0.10;0.10;;;;;;;6.04;68.89;101244.78;7352396;19;20038;-64
2022/04/19 04:21:53;;;;;;;0.10;0.10;;;;;;;6.11;69.60;101254.28;7360781;19;19995;-64
2022/04/19 04:24:19;;;;;;;0.00;0.00;;;;;;;6.07;69.31;101261.19;7362343;19;20022;-63
2022/04/19 04:26:44;;;;;;;0.00;0.00;;;;;;;6.04;69.37;101252.53;7351780;19;20074;-64
2022/04/19 04:29:10;;;;;;;0.00;0.00;;;;;;;5.96;69.56;101250.75;7360903;19;20006;-63
2022/04/19 04:31:35;;;;;;;0.10;0.10;;;;;;;5.98;69.10;101263.72;7353790;19;20002;-64
2022/04/19 04:34:01;;;;;;;0.00;0.00;;;;;;;5.96;69.33;101265.44;7361232;19;20091;-65
2022/04/19 04:36:26;;;;;;;0.00;0.00;;;;;;;5.92;69.01;101256.78;7360792;19;20014;-62
2022/04/19 04:38:51;;;;;;;0.00;0.00;;;;;;;5.89;69.45;101261.94;7357101;19;20019;-64
2022/04/19 04:41:17;;;;;;;0.10;0.10;;;;;;;5.80;69.24;101255.84;7363410;19;20014;-66
2022/04/19 04:43:43;;;;;;;0.10;0.10;;;;;;;5.81;69.65;101266.19;7356169;19;20078;-65
2022/04/19 04:51:37;;;;;;;0.10;0.10;;;;;;;5.76;69.86;101278.25;7364900;19;20042;-64
2022/04/19 04:54:02;;;;;;;0.10;0.10;;;;;;;5.74;69.81;101274.81;7365556;19;20010;-64
2022/04/19 04:56:27;;;;;;;0.10;0.10;;;;;;;5.64;69.64;101267.84;7366374;19;20466;-64
2022/04/19 04:58:53;;;;;;;0.00;0.00;;;;;;;5.72;69.86;101281.69;7363139;19;20009;-63
2022/04/19 05:01:18;;;;;;;0.00;0.00;;;;;;;5.70;69.89;101283.41;7366600;19;21265;-64
2022/04/19 05:03:44;;;;;;;0.00;0.00;;;;;;;5.69;70.07;101286.88;7365841;19;20010;-64
2022/04/19 05:06:09;;;;;;;0.00;0.00;;;;;;;5.68;69.67;101285.16;7356390;19;20020;-64
2022/04/19 05:08:34;;;;;;;0.00;0.00;;;;;;;5.68;70.20;101287.72;7365791;19;20006;-63
2022/04/19 05:11:00;;;;;;;0.00;0.00;;;;;;;5.67;69.92;101289.44;7355016;19;20011;-64
2022/04/19 05:13:28;;;;;;;0.00;0.00;;;;;;;5.67;70.30;101291.16;7365548;19;20018;-64
2022/04/19 05:15:54;;;;;;;0.10;0.10;;;;;;;5.64;69.97;101296.34;7364396;19;20467;-63
2022/04/19 05:18:19;;;;;;;0.00;0.00;;;;;;;5.57;69.80;101276.41;7361760;19;20020;-64
2022/04/19 05:20:45;;;;;;;0.00;0.00;;;;;;;5.65;69.92;101295.47;7365773;19;20003;-64
2022/04/19 05:23:10;;;;;;;0.08;0.08;;;;;;;5.65;69.93;101295.47;7365399;19;20031;-61
2022/04/19 05:25:35;;;;;;;0.00;0.00;;;;;;;5.63;69.99;101307.56;7360739;19;20115;-64
2022/04/19 05:28:01;;;;;;;0.10;0.10;;;;;;;5.64;69.75;101298.94;7356828;19;20422;-64
2022/04/19 05:30:27;;;;;;;0.10;0.10;;;;;;;5.64;70.44;101304.09;7366432;19;20013;-65
2022/04/19 05:32:52;;;;;;;0.10;0.10;;;;;;;5.63;70.69;101302.38;7365286;19;20100;-64
2022/04/19 05:35:18;;;;;;;0.00;0.00;;;;;;;5.62;70.55;101303.22;7364030;19;20793;-65
2022/04/19 05:37:43;;;;;;;0.05;0.05;;;;;;;5.63;70.81;101300.66;7365110;19;20010;-64
2022/04/19 05:40:09;;;;;;;0.10;0.10;;;;;;;5.65;70.78;101300.66;7355098;19;20021;-64
2022/04/19 05:42:35;;;;;;;0.10;0.10;;;;;;;5.65;71.02;101295.47;7365963;19;20082;-64
2022/04/19 05:45:00;;;;;;;0.10;0.10;;;;;;;5.66;71.01;101292.00;7366438;19;20002;-64
2022/04/19 05:47:25;;;;;;;0.10;0.10;;;;;;;5.66;70.65;101290.28;7353018;19;20007;-64
2022/04/19 05:49:51;;;;;;;0.00;0.00;;;;;;;5.69;70.75;101305.00;7359679;19;20011;-64
2022/04/19 05:52:17;;;;;;;0.00;0.00;;;;;;;5.72;70.31;101297.22;7360403;19;20010;-64
2022/04/19 05:54:42;;;;;;;0.10;0.10;;;;;;;5.73;70.88;101304.19;7354465;19;20009;-64
2022/04/19 05:57:10;;;;;;;0.00;0.00;;;;;;;5.75;70.34;101307.63;7365072;19;20038;-64
2022/04/19 05:59:35;;;;;;;0.10;0.10;;;;;;;5.74;70.58;101305.91;7354839;19;20630;-64
2022/04/19 06:04:52;;;;;;;0.10;0.10;;;;;;;5.77;70.90;101305.91;7257843;19;2004602;-65
2022/04/19 06:07:19;;;;;;;0.10;0.10;;;;;;;5.77;71.10;101305.91;7363905;19;20037;-65
2022/04/19 06:09:45;;;;;;;0.05;0.05;;;;;;;5.81;70.82;101311.97;7345240;19;20836;-65
2022/04/19 06:12:10;;;;;;;0.10;0.10;;;;;;;5.83;71.20;101318.94;7365849;19;20031;-64
2022/04/19 06:14:36;;;;;;;0.10;0.10;;;;;;;5.84;70.77;101318.06;7358888;19;20017;-64
2022/04/19 06:17:02;;;;;;;0.00;0.00;;;;;;;5.87;70.92;101325.84;7358342;19;20393;-64
2022/04/19 06:19:27;;;;;;;0.10;0.10;;;;;;;5.89;70.61;101324.16;7365959;19;20014;-64
2022/04/19 06:21:53;;;;;;;0.10;0.10;;;;;;;5.93;70.71;101327.63;7362135;19;20006;-63
2022/04/19 06:24:19;;;;;;;0.10;0.10;;;;;;;5.96;70.91;101327.66;7365723;19;20671;-64
2022/04/19 06:26:44;;;;;;;0.10;0.10;;;;;;;6.00;71.18;101333.75;7362763;19;20013;-65
2022/04/19 06:29:10;;;;;;;0.00;0.00;;;;;;;6.02;70.90;101337.22;7352527;19;21165;-65
2022/04/19 06:31:35;;;;;;;0.00;0.00;;;;;;;5.95;71.20;101321.63;7361292;19;20018;-65
2022/04/19 06:34:01;;;;;;;0.00;0.00;;;;;;;6.08;71.04;101342.41;7363479;19;20011;-63
2022/04/19 06:36:27;;;;;;;0.10;0.10;;;;;;;6.11;71.30;101337.25;7359812;19;20475;-64
2022/04/19 06:38:52;;;;;;;0.10;0.10;;;;;;;6.13;71.52;101343.31;7362894;19;20034;-64
2022/04/19 06:41:18;;;;;;;0.00;0.00;;;;;;;6.19;71.32;101345.97;7359462;19;20007;-64
2022/04/19 06:43:43;;;;;;;0.10;0.10;;;;;;;6.25;71.31;101351.19;7331996;19;20011;-64
2022/04/19 06:46:09;;;;;;;0.00;0.00;;;;;;;6.30;71.47;101343.44;7359600;19;20459;-65
2022/04/19 06:48:34;;;;;;;0.10;0.10;;;;;;;6.33;71.23;101339.09;7360560;19;20002;-64
2022/04/19 06:51:01;;;;;;;0.10;0.10;;;;;;;6.38;71.07;101336.53;7354768;19;19999;-64
2022/04/19 06:53:30;;;;;;;0.00;0.00;;;;;;;6.42;71.03;101344.34;7360685;19;20002;-64
2022/04/19 06:55:56;;;;;;;0.00;0.00;;;;;;;6.45;71.09;101344.38;7359821;19;20421;-64
2022/04/19 06:58:21;;;;;;;0.00;0.00;;;;;;;6.49;70.77;101351.31;7363650;19;20029;-62
2022/04/19 07:00:47;;;;;;;0.05;0.05;;;;;;;6.42;71.22;101333.97;7328423;19;20018;-65
2022/04/19 07:03:12;;;;;;;0.00;0.00;;;;;;;6.49;70.84;101348.72;7358149;19;20018;-63
2022/04/19 07:05:38;;;;;;;0.10;0.10;;;;;;;6.57;70.86;101358.25;7358043;19;20014;-65
2022/04/19 07:08:07;;;;;;;0.10;0.10;;;;;;;6.60;70.94;101358.28;7358908;19;20011;-64
2022/04/19 07:10:36;;;;;;;0.00;0.00;;;;;;;6.62;70.91;101364.31;7345138;19;20014;-65
2022/04/19 07:13:01;;;;;;;0.00;0.00;;;;;;;6.64;71.08;101357.41;7358383;19;20030;-64
2022/04/19 07:15:27;;;;;;;0.00;0.00;;;;;;;6.68;71.24;101353.97;7350512;19;20025;-64
2022/04/19 07:17:52;;;;;;;0.10;0.10;;;;;;;6.69;71.30;101355.69;7355617;19;20002;-65
2022/04/19 07:28:35;;;;;;;0.00;0.00;;;;;;;6.91;71.29;101360.09;7358460;19;20023;-64
2022/04/19 07:31:03;;;;;;;0.00;0.00;;;;;;;6.92;71.64;101356.63;7347204;19;20007;-64
2022/04/19 07:33:37;;;;;;;0.00;0.00;;;;;;;6.99;71.53;101363.59;7347695;19;20845;-63
2022/04/19 07:36:02;;;;;;;0.10;0.10;;;;;;;7.05;71.74;101367.06;7354108;19;20031;-64
2022/04/19 07:38:28;;;;;;;0.03;0.03;;;;;;;7.12;71.78;101366.22;7353876;19;20015;-64
2022/04/19 07:40:54;;;;;;;0.00;0.00;;;;;;;7.18;71.71;101374.00;7352661;19;20042;-64
2022/04/19 07:43:19;;;;;;;0.00;0.00;;;;;;;7.19;71.99;101365.34;7350426;19;20640;-64
2022/04/19 07:45:44;;;;;;;0.00;0.00;;;;;;;7.33;71.61;101384.44;7340228;19;20010;-63
2022/04/19 07:48:10;;;;;;;0.10;0.10;;;;;;;7.42;71.13;101389.66;7349063;19;20018;-64
2022/04/19 07:50:35;;;;;;;0.00;0.00;;;;;;;7.47;71.26;101387.91;7359118;19;20013;-65
2022/04/19 07:53:01;;;;;;;0.03;0.03;;;;;;;7.57;71.10;101399.19;7331967;19;20006;-65
2022/04/19 07:55:27;;;;;;;0.10;0.10;;;;;;;7.63;71.74;101407.00;7355716;19;20856;-64
2022/04/19 07:57:53;;;;;;;0.00;0.00;;;;;;;7.62;71.00;101396.59;7350711;19;20010;-63
2022/04/19 08:00:19;;;;;;;0.00;0.00;;;;;;;7.73;71.30;101410.47;7360242;19;20026;-64
2022/04/19 08:02:46;;;;;;;0.05;0.05;;;;;;;7.83;71.26;101408.75;7355475;19;20002;-64
2022/04/19 08:05:11;;;;;;;0.00;0.00;;;;;;;7.91;71.24;101415.69;7356085;19;20010;-64
2022/04/19 08:07:36;;;;;;;0.10;0.10;;;;;;;7.98;71.30;101409.59;7327172;19;20017;-64
2022/04/19 08:10:03;;;;;;;0.10;0.10;;;;;;;8.04;71.08;101412.19;7345798;19;20016;-65
2022/04/19 08:12:28;;;;;;;0.00;0.00;;;;;;;8.10;71.30;101410.44;7354631;19;20006;-64
2022/04/19 08:14:55;;;;;;;0.00;0.00;;;;;;;8.18;71.41;101408.72;7356315;19;20023;-64
2022/04/19 08:17:21;;;;;;;0.10;0.10;;;;;;;8.26;71.40;101417.34;7360528;19;20909;-64
2022/04/19 08:19:46;;;;;;;0.00;0.00;;;;;;;8.26;71.67;101397.44;7355335;19;19998;-64
2022/04/19 08:22:12;;;;;;;0.00;0.00;;;;;;;8.42;71.58;101413.91;7360989;19;20109;-64
2022/04/19 08:24:37;;;;;;;0.00;0.00;;;;;;;8.50;71.46;101409.53;7361203;19;20086;-65
2022/04/19 08:27:04;;;;;;;0.10;0.10;;;;;;;8.58;71.33;101405.19;7360303;19;20014;-64
2022/04/19 08:29:30;;;;;;;0.10;0.10;;;;;;;8.65;71.41;101399.94;7359587;19;20035;-64
2022/04/19 08:31:55;;;;;;;0.00;0.00;;;;;;;8.77;71.27;101402.50;7360906;19;20006;-64
2022/04/19 08:34:21;;;;;;;0.10;0.10;;;;;;;8.89;71.43;101405.06;7363231;19;20467;-62
2022/04/19 08:36:46;;;;;;;0.00;0.00;;;;;;;9.00;71.59;101411.06;7364462;19;20103;-65
2022/04/19 08:39:12;;;;;;;0.10;0.10;;;;;;;9.10;71.46;101407.53;7363851;19;20026;-63
2022/04/19 08:41:39;;;;;;;0.00;0.00;;;;;;;9.26;70.97;101410.06;7364236;19;19998;-65
2022/04/19 08:44:05;;;;;;;0.00;0.00;;;;;;;9.38;71.43;101410.00;7366112;19;20026;-64
2022/04/19 08:46:32;;;;;;;0.00;0.00;;;;;;;9.49;70.84;101405.59;7365832;19;20006;-65
2022/04/19 08:49:02;;;;;;;0.00;0.00;;;;;;;9.75;70.68;101412.34;7363728;19;20935;-65
2022/04/19 08:51:32;;;;;;;0.00;0.00;;;;;;;9.97;70.47;101413.88;7363695;19;20011;-64
2022/04/19 08:59:28;;;;;;;0.00;0.00;;;;;;;10.84;69.55;101418.22;7363921;19;20770;-64
2022/04/19 09:01:53;;;;;;;0.08;0.08;;;;;;;11.05;68.84;101406.66;7362626;19;20014;-64
2022/04/19 09:04:22;;;;;;;0.00;0.00;;;;;;;11.42;68.28;101412.22;7356557;19;20070;-66
2022/04/19 09:06:56;;;;;;;0.00;0.00;;;;;;;11.73;68.37;101413.50;7360159;19;20029;-63
2022/04/19 09:09:30;;;;;;;0.00;0.00;;;;;;;11.94;66.94;101406.19;7359348;19;20021;-65
2022/04/19 09:12:07;;;;;;;0.00;0.00;;;;;;;12.34;67.88;101421.19;7357228;19;20824;-65
2022/04/19 09:14:32;;;;;;;0.10;0.10;;;;;;;12.56;66.83;101416.38;7359402;19;20027;-65
2022/04/19 09:17:05;;;;;;;0.10;0.10;;;;;;;12.89;66.33;101408.75;7361573;19;20304;-65
2022/04/19 09:19:31;;;;;;;0.10;0.10;;;;;;;13.14;65.34;101415.22;7362307;19;20007;-65
2022/04/19 09:21:57;;;;;;;0.10;0.10;;;;;;;13.46;65.24;101413.66;7363285;19;20010;-65
2022/04/19 09:24:25;;;;;;;0.00;0.00;;;;;;;13.79;63.54;101421.59;7365433;19;20845;-66
2022/04/19 09:26:51;;;;;;;0.10;0.10;;;;;;;14.07;63.32;101419.16;7352110;19;20014;-66
2022/04/19 09:29:23;;;;;;;0.00;0.00;;;;;;;14.36;62.71;101415.78;7361131;19;20768;-65
2022/04/19 09:31:51;;;;;;;0.10;0.10;;;;;;;14.65;62.21;101422.88;7358352;19;20018;-65
2022/04/19 09:34:33;;;;;;;0.10;0.10;;;;;;;15.00;63.28;101419.22;7363318;19;20465;-65
2022/04/19 09:37:06;;;;;;;0.10;0.10;;;;;;;15.26;62.01;101416.69;7358992;19;20027;-66
2022/04/19 09:39:34;;;;;;;0.00;0.00;;;;;;;15.40;60.44;101396.97;7362002;19;20035;-65
2022/04/19 09:42:08;;;;;;;0.00;0.00;;;;;;;15.90;60.92;101418.19;7359093;19;20022;-64
2022/04/19 09:44:38;;;;;;;0.10;0.10;;;;;;;16.16;59.99;101412.91;7364755;19;20362;-64
2022/04/19 09:47:07;;;;;;;0.03;0.03;;;;;;;16.45;58.98;101416.31;7356543;19;20010;-65
2022/04/19 09:49:53;;;;;;;0.00;0.00;;;;;;;16.78;60.08;101420.41;7363196;19;20018;-65
2022/04/19 09:52:22;;;;;;;0.10;0.10;;;;;;;17.01;58.05;101410.75;7354479;19;20011;-65
2022/04/19 09:55:02;;;;;;;0.10;0.10;;;;;;;17.32;59.08;101416.56;7365200;19;20030;-66
2022/04/19 09:57:32;;;;;;;0.10;0.10;;;;;;;17.50;56.81;101427.31;7354562;19;20899;-66
2022/04/19 09:59:59;;;;;;;0.03;0.03;;;;;;;17.73;55.36;101426.41;7360634;19;20605;-65
2022/04/19 10:08:11;;;;;;;0.00;0.00;;;;;;;18.85;53.08;101425.09;7358304;19;20145;-65
2022/04/19 10:10:38;;;;;;;0.05;0.05;;;;;;;19.15;50.56;101422.81;7363348;19;20716;-66
2022/04/19 10:13:04;;;;;;;0.00;0.00;;;;;;;19.47;51.90;101415.16;7356926;19;20021;-65
2022/04/19 10:15:36;;;;;;;0.10;0.10;;;;;;;19.78;54.08;101402.16;7356863;19;20125;-66
2022/04/19 10:18:06;;;;;;;0.10;0.10;;;;;;;20.34;50.11;101426.72;7356821;19;20007;-66
2022/04/19 10:20:34;;;;;;;0.10;0.10;;;;;;;20.49;50.73;101415.34;7356766;19;20720;-66
2022/04/19 10:23:05;;;;;;;0.00;0.00;;;;;;;20.84;49.81;101420.56;7360258;19;20027;-64
2022/04/19 10:25:48;;;;;;;0.10;0.10;;;;;;;20.93;52.48;101423.56;7360460;19;20023;-65
2022/04/19 10:28:25;;;;;;;0.00;0.00;;;;;;;20.73;47.01;101434.38;7354821;19;20697;-65
2022/04/19 10:30:53;;;;;;;0.10;0.10;;;;;;;20.49;47.42;101425.09;7358170;19;20053;-65
2022/04/19 10:33:44;;;;;;;0.10;0.10;;;;;;;20.41;50.97;101434.25;7351546;19;20002;-65
2022/04/19 10:36:23;;;;;;;0.10;0.10;;;;;;;20.36;51.48;101436.28;7353740;19;20018;-65
2022/04/19 10:39:11;;;;;;;0.05;0.05;;;;;;;20.56;53.09;101432.63;7360205;19;20020;-65
2022/04/19 10:41:56;;;;;;;0.00;0.00;;;;;;;20.94;53.73;101430.59;7347813;19;20017;-65
2022/04/19 10:44:32;;;;;;;0.00;0.00;;;;;;;21.20;49.56;101425.66;7356924;19;20473;-65
2022/04/19 10:47:17;;;;;;;0.00;0.00;;;;;;;21.28;50.13;101430.50;7345998;19;20049;-64
2022/04/19 10:49:52;;;;;;;0.10;0.10;;;;;;;21.11;45.82;101434.97;7351700;19;20013;-64
2022/04/19 10:52:35;;;;;;;0.10;0.10;;;;;;;20.91;49.11;101432.53;7356789;19;20010;-64
2022/04/19 10:55:03;;;;;;;0.10;0.10;;;;;;;20.62;44.91;101434.09;7356993;19;20014;-64
2022/04/19 11:00:36;;;;;;;0.10;0.10;;;;;;;20.97;48.82;101425.09;7258474;19;2004587;-65
2022/04/19 11:03:11;;;;;;;0.10;0.10;;;;;;;21.53;49.75;101422.91;7353255;19;20013;-65
2022/04/19 11:05:43;;;;;;;0.10;0.10;;;;;;;21.95;47.82;101411.59;7358264;19;20735;-66
2022/04/19 11:08:26;;;;;;;0.10;0.10;;;;;;;22.73;50.60;101427.31;7355752;19;20010;-66
2022/04/19 11:10:52;;;;;;;0.10;0.10;;;;;;;23.08;44.40;101429.63;7356996;19;20014;-65
2022/04/19 11:13:19;;;;;;;0.10;0.10;;;;;;;23.41;43.27;101411.44;7356407;19;20014;-66
2022/04/19 11:15:57;;;;;;;0.08;0.08;;;;;;;24.08;46.13;101428.34;7358789;19;20010;-66
2022/04/19 11:18:33;;;;;;;0.10;0.10;;;;;;;24.59;43.43;101423.06;7357422;19;20018;-65
2022/04/19 11:21:12;;;;;;;0.10;0.10;;;;;;;25.13;43.94;101421.91;7359060;19;20002;-65
2022/04/19 11:23:45;;;;;;;0.10;0.10;;;;;;;25.56;41.13;101419.63;7359242;19;20749;-65
2022/04/19 11:26:29;;;;;;;0.10;0.10;;;;;;;26.08;45.66;101420.22;7347741;19;20979;-65
2022/04/19 11:29:10;;;;;;;0.10;0.10;;;;;;;26.44;43.37;101419.22;7356920;19;20006;-64
2022/04/19 11:31:36;;;;;;;0.03;0.03;;;;;;;26.34;38.55;101410.19;7359258;19;20010;-65
2022/04/19 11:34:15;;;;;;;0.10;0.10;;;;;;;26.59;41.71;101426.06;7351020;19;20107;-65
2022/04/19 11:36:41;;;;;;;0.10;0.10;;;;;;;26.49;35.87;101425.09;7354022;19;20002;-66
2022/04/19 11:39:07;;;;;;;0.10;0.10;;;;;;;26.63;36.31;101416.81;7355829;19;20649;-64
2022/04/19 11:47:03;;;;;;;0.10;0.10;;;;;;;27.50;37.58;101411.59;7358217;19;20041;-65
2022/04/19 11:49:31;;;;;;;0.10;0.10;;;;;;;27.87;35.87;101419.28;7354368;19;20010;-64
2022/04/19 11:51:59;;;;;;;0.10;0.10;;;;;;;28.18;35.41;101418.41;7355936;19;20006;-64
2022/04/19 11:54:28;;;;;;;0.00;0.00;;;;;;;28.49;37.91;101415.78;7356335;19;20077;-64
2022/04/19 11:57:14;;;;;;;0.10;0.10;;;;;;;28.99;40.11;101413.16;7351770;19;20086;-64
2022/04/19 11:59:42;;;;;;;0.00;0.00;;;;;;;29.04;33.94;101416.28;7354869;19;20010;-65
2022/04/19 12:02:20;;;;;;;0.00;0.00;;;;;;;29.27;36.93;101411.53;7352422;19;20074;-63
2022/04/19 12:04:53;;;;;;;0.03;0.03;;;;;;;29.12;37.07;101391.41;7351090;19;20709;-64
2022/04/19 12:07:20;;;;;;;0.10;0.10;;;;;;;28.90;32.97;101408.59;7354255;19;20025;-65
2022/04/19 12:09:47;;;;;;;0.10;0.10;;;;;;;28.62;37.39;101397.56;7348433;19;20022;-65
2022/04/19 12:12:13;;;;;;;0.07;0.07;;;;;;;28.48;35.02;101414.06;7357438;19;20019;-65
2022/04/19 12:14:38;;;;;;;0.10;0.10;;;;;;;28.19;33.28;101409.34;7355415;19;20417;-65